< < Back
Terminal Aerodrome Forecast


Current Version              Previous Versions:   1  2  3  4  5  6  7  8  9  

Terminal Aerodrome Forecast

819
FTUS42 KFFC 232331
TAFFTY
TAF
KFTY 232331Z 2400/2424 32007KT P6SM FEW120 BKN150
     FM240300 35005KT P6SM BKN120
     FM241200 05005KT P6SM BKN090
     FM241700 13006KT P6SM BKN070
     FM242100 17006KT P6SM BKN060=



Latest METAR

050
SAUS70 KWBC 250000 RRE
MTRFTY
METAR KFTY 242353Z 19003KT 10SM CLR 23/05 A2995 RMK AO2 SLP138 T02280050
10250 20217 58007


USA.gov is the U.S. government's official web portal to all federal, state and local government web resources and services.